Time;durP1;ratioP1;P1;durP2;ratioP2;P2;SDS_P1;SDS_P2;PMS_P1;PMS_P2;Temp;Humidity;BMP_temperature;BMP_pressure;BME280_temperature;BME280_humidity;BME280_pressure;Samples;Min_cycle;Max_cycle;Signal;HPM_P1;HPM_P2
2022/10/24 00:01:58;;;;;;;;;;;;;;;;;;5036021;28;19921;-73
2022/10/24 00:04:24;;;;;;;;;;;;;;;;;;5035639;28;19944;-73
2022/10/24 00:06:50;;;;;;;;;;;;;;;;;;5019608;28;19925;-74
2022/10/24 00:09:15;;;;;;;;;;;;;;;;;;5054125;28;19917;-74
2022/10/24 00:11:42;;;;;;;;;;;;;;;;;;5017443;28;19917;-74
2022/10/24 00:14:08;;;;;;;;;;;;;;;;;;5015759;28;20004;-74
2022/10/24 00:16:34;;;;;;;;;;;;;;;;;;5033926;28;19963;-74
2022/10/24 00:19:00;;;;;;;;;;;;;;;;;;5016217;28;20012;-74
2022/10/24 00:21:26;;;;;;;;;;;;;;;;;;5016113;28;19960;-74
2022/10/24 00:23:52;;;;;;;;;;;;;;;;;;5036282;28;19923;-72
2022/10/24 00:26:18;;;;;;;;;;;;;;;;;;5028132;28;19983;-74
2022/10/24 00:28:44;;;;;;;;;;;;;;;;;;5034317;28;19924;-74
2022/10/24 00:31:09;;;;;;;;;;;;;;;;;;5035849;28;19916;-74
2022/10/24 00:33:35;;;;;;;;;;;;;;;;;;5035497;28;19916;-74
2022/10/24 00:36:01;;;;;;;;;;;;;;;;;;5052676;28;19924;-74
2022/10/24 00:38:27;;;;;;;;;;;;;;;;;;5035793;28;19924;-74
2022/10/24 00:40:53;;;;;;;;;;;;;;;;;;5044459;28;19916;-74
2022/10/24 00:43:19;;;;;;;;;;;;;;;;;;5015546;28;20479;-74
2022/10/24 00:45:45;;;;;;;;;;;;;;;;;;5015086;28;20050;-74
2022/10/24 00:48:11;;;;;;;;;;;;;;;;;;4999065;28;19917;-74
2022/10/24 00:50:37;;;;;;;;;;;;;;;;;;5014401;28;20286;-74
2022/10/24 00:53:02;;;;;;;;;;;;;;;;;;5033202;28;19917;-74
2022/10/24 00:55:28;;;;;;;;;;;;;;;;;;5014729;28;19921;-74
2022/10/24 00:57:55;;;;;;;;;;;;;;;;;;5029318;28;20330;-74
2022/10/24 01:00:21;;;;;;;;;;;;;;;;;;5035199;28;19917;-74
2022/10/24 01:02:47;;;;;;;;;;;;;;;;;;5035115;28;19917;-74
2022/10/24 01:05:13;;;;;;;;;;;;;;;;;;5033452;28;19925;-74
2022/10/24 01:07:39;;;;;;;;;;;;;;;;;;5034990;28;19921;-74
2022/10/24 01:10:04;;;;;;;;;;;;;;;;;;5034846;28;19924;-74
2022/10/24 01:12:30;;;;;;;;;;;;;;;;;;5017982;28;20298;-74
2022/10/24 01:14:56;;;;;;;;;;;;;;;;;;5012948;28;19917;-74
2022/10/24 01:17:22;;;;;;;;;;;;;;;;;;5033141;28;19917;-74
2022/10/24 01:19:48;;;;;;;;;;;;;;;;;;5032928;28;19921;-74
2022/10/24 01:22:14;;;;;;;;;;;;;;;;;;4998566;28;19941;-74
2022/10/24 01:24:40;;;;;;;;;;;;;;;;;;5032064;28;19925;-74
2022/10/24 01:27:06;;;;;;;;;;;;;;;;;;5015044;28;19944;-74
2022/10/24 01:29:32;;;;;;;;;;;;;;;;;;5020923;28;19923;-74
2022/10/24 01:31:58;;;;;;;;;;;;;;;;;;5017606;28;19917;-74
2022/10/24 01:34:23;;;;;;;;;;;;;;;;;;5031249;28;19971;-74
2022/10/24 01:36:49;;;;;;;;;;;;;;;;;;5032510;28;20276;-74
2022/10/24 01:39:15;;;;;;;;;;;;;;;;;;5030008;28;19916;-74
2022/10/24 01:41:41;;;;;;;;;;;;;;;;;;5017896;28;19916;-74
2022/10/24 01:44:07;;;;;;;;;;;;;;;;;;5016779;28;20382;-73
2022/10/24 01:46:33;;;;;;;;;;;;;;;;;;5032678;28;19920;-73
2022/10/24 01:48:59;;;;;;;;;;;;;;;;;;5032655;28;19978;-74
2022/10/24 01:51:25;;;;;;;;;;;;;;;;;;5050842;28;20408;-74
2022/10/24 01:53:51;;;;;;;;;;;;;;;;;;5033717;28;20017;-73
2022/10/24 01:56:17;;;;;;;;;;;;;;;;;;5034252;28;19916;-74
2022/10/24 01:58:43;;;;;;;;;;;;;;;;;;5034499;28;20367;-73
2022/10/24 02:01:09;;;;;;;;;;;;;;;;;;5052219;28;19917;-74
2022/10/24 02:03:35;;;;;;;;;;;;;;;;;;5031953;28;20027;-74
2022/10/24 02:06:01;;;;;;;;;;;;;;;;;;5013416;28;19921;-74
2022/10/24 02:08:28;;;;;;;;;;;;;;;;;;5014231;28;19923;-74
2022/10/24 02:10:54;;;;;;;;;;;;;;;;;;5014387;28;19917;-74
2022/10/24 02:13:19;;;;;;;;;;;;;;;;;;5014287;28;19924;-74
2022/10/24 02:15:45;;;;;;;;;;;;;;;;;;5013494;28;19916;-74
2022/10/24 02:18:11;;;;;;;;;;;;;;;;;;5034384;28;19917;-74
2022/10/24 02:20:37;;;;;;;;;;;;;;;;;;5036907;28;19917;-74
2022/10/24 02:23:03;;;;;;;;;;;;;;;;;;5021536;28;20286;-74
2022/10/24 02:25:29;;;;;;;;;;;;;;;;;;5055024;28;19966;-74
2022/10/24 02:27:55;;;;;;;;;;;;;;;;;;5038022;28;19916;-74
2022/10/24 02:30:21;;;;;;;;;;;;;;;;;;5037843;28;19924;-73
2022/10/24 02:32:47;;;;;;;;;;;;;;;;;;5043989;28;19970;-74
2022/10/24 02:35:13;;;;;;;;;;;;;;;;;;5035038;28;19924;-74
2022/10/24 02:37:38;;;;;;;;;;;;;;;;;;5017973;28;19924;-73
2022/10/24 02:40:04;;;;;;;;;;;;;;;;;;5035727;28;19986;-73
2022/10/24 02:42:30;;;;;;;;;;;;;;;;;;5017705;28;19917;-73
2022/10/24 02:44:56;;;;;;;;;;;;;;;;;;5034892;28;19964;-74
2022/10/24 02:47:22;;;;;;;;;;;;;;;;;;5033240;28;20454;-74
2022/10/24 02:49:48;;;;;;;;;;;;;;;;;;5036351;28;19925;-74
2022/10/24 02:52:14;;;;;;;;;;;;;;;;;;5037253;28;19923;-74
2022/10/24 02:54:40;;;;;;;;;;;;;;;;;;5047341;28;19917;-74
2022/10/24 02:57:06;;;;;;;;;;;;;;;;;;5045708;28;19916;-74
2022/10/24 02:59:31;;;;;;;;;;;;;;;;;;5055348;28;20386;-72
2022/10/24 03:01:57;;;;;;;;;;;;;;;;;;5051571;28;19916;-72
2022/10/24 03:04:23;;;;;;;;;;;;;;;;;;5016614;28;19956;-71
2022/10/24 03:06:49;;;;;;;;;;;;;;;;;;5035245;28;19921;-72
2022/10/24 03:09:15;;;;;;;;;;;;;;;;;;5017418;28;19917;-72
2022/10/24 03:11:41;;;;;;;;;;;;;;;;;;5034466;28;19917;-72
2022/10/24 03:14:07;;;;;;;;;;;;;;;;;;5034315;28;19924;-72
2022/10/24 03:16:33;;;;;;;;;;;;;;;;;;5016947;28;19956;-72
2022/10/24 03:18:59;;;;;;;;;;;;;;;;;;5041065;28;19917;-74
2022/10/24 03:21:25;;;;;;;;;;;;;;;;;;5021507;28;19916;-74
2022/10/24 03:23:51;;;;;;;;;;;;;;;;;;5054464;28;19917;-71
2022/10/24 03:26:16;;;;;;;;;;;;;;;;;;5052772;28;19921;-72
2022/10/24 03:28:42;;;;;;;;;;;;;;;;;;5019473;28;20477;-72
2022/10/24 03:31:08;;;;;;;;;;;;;;;;;;5036761;28;19926;-72
2022/10/24 03:33:34;;;;;;;;;;;;;;;;;;5036614;28;19965;-73
2022/10/24 03:36:00;;;;;;;;;;;;;;;;;;5051123;28;20003;-72
2022/10/24 03:38:26;;;;;;;;;;;;;;;;;;5036693;28;19916;-72
2022/10/24 03:40:52;;;;;;;;;;;;;;;;;;5054688;28;19923;-73
2022/10/24 03:43:18;;;;;;;;;;;;;;;;;;5037437;28;19943;-73
2022/10/24 03:45:44;;;;;;;;;;;;;;;;;;5035600;28;19927;-72
2022/10/24 03:48:10;;;;;;;;;;;;;;;;;;5054338;28;19917;-72
2022/10/24 03:50:35;;;;;;;;;;;;;;;;;;5036502;28;19920;-73
2022/10/24 03:53:01;;;;;;;;;;;;;;;;;;5024712;28;19917;-73
2022/10/24 03:55:27;;;;;;;;;;;;;;;;;;5016185;28;19963;-73
2022/10/24 03:57:53;;;;;;;;;;;;;;;;;;5016652;28;19993;-73
2022/10/24 04:00:19;;;;;;;;;;;;;;;;;;5016792;28;20405;-73
2022/10/24 04:02:45;;;;;;;;;;;;;;;;;;4999965;28;19972;-72
2022/10/24 04:05:11;;;;;;;;;;;;;;;;;;5015608;28;19921;-72
2022/10/24 04:07:37;;;;;;;;;;;;;;;;;;5016300;28;19935;-73
2022/10/24 04:10:03;;;;;;;;;;;;;;;;;;5035236;28;19917;-73
2022/10/24 04:12:29;;;;;;;;;;;;;;;;;;5016304;28;19940;-72
2022/10/24 04:14:55;;;;;;;;;;;;;;;;;;5015386;28;19921;-71
2022/10/24 04:17:20;;;;;;;;;;;;;;;;;;5016778;28;19984;-71
2022/10/24 04:19:46;;;;;;;;;;;;;;;;;;5036889;28;20446;-71
2022/10/24 04:22:12;;;;;;;;;;;;;;;;;;5035525;28;19917;-72
2022/10/24 04:24:38;;;;;;;;;;;;;;;;;;5051200;28;19947;-72
2022/10/24 04:27:04;;;;;;;;;;;;;;;;;;5035768;28;19924;-72
2022/10/24 04:29:30;;;;;;;;;;;;;;;;;;5053397;28;19925;-72
2022/10/24 04:31:56;;;;;;;;;;;;;;;;;;5053712;28;19920;-73
2022/10/24 04:34:22;;;;;;;;;;;;;;;;;;5052989;28;20382;-73
2022/10/24 04:36:48;;;;;;;;;;;;;;;;;;5035645;28;20445;-72
2022/10/24 04:39:13;;;;;;;;;;;;;;;;;;5035252;28;19956;-72
2022/10/24 04:41:39;;;;;;;;;;;;;;;;;;5033611;28;19917;-72
2022/10/24 04:44:05;;;;;;;;;;;;;;;;;;5034438;28;20436;-72
2022/10/24 04:46:31;;;;;;;;;;;;;;;;;;5053280;28;19921;-72
2022/10/24 04:48:57;;;;;;;;;;;;;;;;;;5035684;28;20283;-72
2022/10/24 04:51:23;;;;;;;;;;;;;;;;;;5035621;28;20413;-73
2022/10/24 04:53:49;;;;;;;;;;;;;;;;;;5052541;28;19917;-72
2022/10/24 04:56:15;;;;;;;;;;;;;;;;;;5035319;28;19924;-72
2022/10/24 04:58:41;;;;;;;;;;;;;;;;;;5033282;28;20367;-72
2022/10/24 05:01:06;;;;;;;;;;;;;;;;;;5035159;28;20398;-72
2022/10/24 05:03:32;;;;;;;;;;;;;;;;;;5034934;28;19917;-73
2022/10/24 05:05:58;;;;;;;;;;;;;;;;;;5034286;28;19925;-72
2022/10/24 05:08:24;;;;;;;;;;;;;;;;;;5052958;28;20012;-73
2022/10/24 05:10:50;;;;;;;;;;;;;;;;;;5034886;28;20358;-73
2022/10/24 05:13:16;;;;;;;;;;;;;;;;;;5018357;28;19924;-72
2022/10/24 05:15:42;;;;;;;;;;;;;;;;;;5032655;28;19988;-73
2022/10/24 05:18:08;;;;;;;;;;;;;;;;;;5015379;28;19924;-72
2022/10/24 05:20:34;;;;;;;;;;;;;;;;;;5014982;28;19924;-72
2022/10/24 05:22:59;;;;;;;;;;;;;;;;;;5014792;28;19925;-72
2022/10/24 05:25:25;;;;;;;;;;;;;;;;;;5014181;28;19928;-72
2022/10/24 05:27:51;;;;;;;;;;;;;;;;;;5035588;28;19964;-72
2022/10/24 05:30:17;;;;;;;;;;;;;;;;;;5034840;28;19917;-72
2022/10/24 05:32:43;;;;;;;;;;;;;;;;;;5032768;28;19970;-72
2022/10/24 05:35:09;;;;;;;;;;;;;;;;;;5033461;28;20013;-72
2022/10/24 05:37:35;;;;;;;;;;;;;;;;;;5033813;28;20363;-72
2022/10/24 05:40:01;;;;;;;;;;;;;;;;;;5034395;28;19916;-73
2022/10/24 05:42:27;;;;;;;;;;;;;;;;;;5033707;28;19920;-72
2022/10/24 05:44:52;;;;;;;;;;;;;;;;;;5009688;28;20383;-72
2022/10/24 05:47:18;;;;;;;;;;;;;;;;;;5014044;28;19944;-72
2022/10/24 05:49:44;;;;;;;;;;;;;;;;;;5014638;28;19964;-72
2022/10/24 05:52:10;;;;;;;;;;;;;;;;;;5014529;28;19923;-72
2022/10/24 05:54:36;;;;;;;;;;;;;;;;;;4997636;28;19917;-72
2022/10/24 05:57:02;;;;;;;;;;;;;;;;;;5014363;28;19917;-72
2022/10/24 05:59:28;;;;;;;;;;;;;;;;;;5014811;28;19921;-72
2022/10/24 06:01:54;;;;;;;;;;;;;;;;;;5047154;28;19917;-72
2022/10/24 06:04:20;;;;;;;;;;;;;;;;;;5032728;28;19917;-72
2022/10/24 06:06:45;;;;;;;;;;;;;;;;;;5016689;28;19928;-72
2022/10/24 06:09:11;;;;;;;;;;;;;;;;;;5019377;28;20063;-72
2022/10/24 06:11:37;;;;;;;;;;;;;;;;;;5014872;28;20374;-72
2022/10/24 06:14:03;;;;;;;;;;;;;;;;;;5008449;28;19921;-71
2022/10/24 06:16:29;;;;;;;;;;;;;;;;;;5029814;28;19996;-72
2022/10/24 06:18:55;;;;;;;;;;;;;;;;;;5049685;28;19927;-71
2022/10/24 06:21:21;;;;;;;;;;;;;;;;;;5033882;28;19995;-72
2022/10/24 06:23:47;;;;;;;;;;;;;;;;;;5044364;28;19971;-72
2022/10/24 06:26:13;;;;;;;;;;;;;;;;;;5028795;28;20375;-73
2022/10/24 06:28:39;;;;;;;;;;;;;;;;;;5011889;28;19928;-73
2022/10/24 06:31:05;;;;;;;;;;;;;;;;;;5031006;28;19921;-71
2022/10/24 06:33:31;;;;;;;;;;;;;;;;;;5025368;28;19928;-72
2022/10/24 06:35:57;;;;;;;;;;;;;;;;;;5037445;28;19928;-72
2022/10/24 06:38:23;;;;;;;;;;;;;;;;;;5047082;28;19921;-72
2022/10/24 06:40:49;;;;;;;;;;;;;;;;;;5042827;28;19944;-73
2022/10/24 06:43:15;;;;;;;;;;;;;;;;;;5027685;28;19967;-73
2022/10/24 06:45:41;;;;;;;;;;;;;;;;;;5027382;28;19920;-73
2022/10/24 06:48:07;;;;;;;;;;;;;;;;;;5007818;28;19928;-73
2022/10/24 06:50:33;;;;;;;;;;;;;;;;;;5025345;28;19924;-73
2022/10/24 06:52:59;;;;;;;;;;;;;;;;;;5036843;28;19982;-72
2022/10/24 06:55:24;;;;;;;;;;;;;;;;;;5016372;28;19925;-73
2022/10/24 06:57:50;;;;;;;;;;;;;;;;;;5014820;28;20004;-72
2022/10/24 07:00:16;;;;;;;;;;;;;;;;;;5017308;28;19978;-73
2022/10/24 07:02:42;;;;;;;;;;;;;;;;;;5018021;28;20015;-74
2022/10/24 07:05:11;;;;;;;;;;;;;;;;;;5014858;28;19925;-73
2022/10/24 07:07:37;;;;;;;;;;;;;;;;;;5017813;28;19999;-73
2022/10/24 07:10:03;;;;;;;;;;;;;;;;;;5005266;28;20011;-73
2022/10/24 07:12:29;;;;;;;;;;;;;;;;;;5029862;28;19921;-71
2022/10/24 07:14:55;;;;;;;;;;;;;;;;;;5043647;28;19967;-72
2022/10/24 07:17:20;;;;;;;;;;;;;;;;;;5030258;28;19974;-72
2022/10/24 07:19:46;;;;;;;;;;;;;;;;;;5042785;28;19940;-73
2022/10/24 07:22:12;;;;;;;;;;;;;;;;;;5031125;28;19924;-73
2022/10/24 07:24:38;;;;;;;;;;;;;;;;;;5031947;28;19986;-73
2022/10/24 07:27:04;;;;;;;;;;;;;;;;;;5050748;28;20111;-73
2022/10/24 07:29:30;;;;;;;;;;;;;;;;;;5023764;28;20298;-73
2022/10/24 07:31:58;;;;;;;;;;;;;;;;;;5020003;28;19932;-72
2022/10/24 07:34:24;;;;;;;;;;;;;;;;;;5012740;28;19917;-73
2022/10/24 07:36:50;;;;;;;;;;;;;;;;;;5050796;28;20306;-73
2022/10/24 07:39:16;;;;;;;;;;;;;;;;;;5023752;28;19921;-73
2022/10/24 07:41:42;;;;;;;;;;;;;;;;;;5014233;28;19917;-73
2022/10/24 07:44:08;;;;;;;;;;;;;;;;;;5044869;28;19917;-73
2022/10/24 07:46:34;;;;;;;;;;;;;;;;;;5031315;28;19972;-72
2022/10/24 07:48:59;;;;;;;;;;;;;;;;;;4998028;28;19925;-73
2022/10/24 07:51:27;;;;;;;;;;;;;;;;;;5028012;28;19939;-73
2022/10/24 07:53:53;;;;;;;;;;;;;;;;;;5035282;28;20374;-71
2022/10/24 07:56:19;;;;;;;;;;;;;;;;;;5053494;28;19920;-73
2022/10/24 07:58:45;;;;;;;;;;;;;;;;;;5036291;28;20388;-73
2022/10/24 08:01:11;;;;;;;;;;;;;;;;;;5034554;28;19920;-73
2022/10/24 08:03:37;;;;;;;;;;;;;;;;;;5033614;28;19920;-73
2022/10/24 08:06:02;;;;;;;;;;;;;;;;;;5032025;28;19963;-73
2022/10/24 08:08:28;;;;;;;;;;;;;;;;;;5019326;28;19920;-73
2022/10/24 08:10:54;;;;;;;;;;;;;;;;;;5032463;28;19916;-73
2022/10/24 08:13:20;;;;;;;;;;;;;;;;;;5032306;28;19953;-73
2022/10/24 08:15:46;;;;;;;;;;;;;;;;;;5032431;28;20291;-73
2022/10/24 08:18:12;;;;;;;;;;;;;;;;;;5032544;28;19917;-73
2022/10/24 08:20:38;;;;;;;;;;;;;;;;;;5041582;28;19921;-73
2022/10/24 08:23:04;;;;;;;;;;;;;;;;;;5015671;28;19953;-73
2022/10/24 08:25:30;;;;;;;;;;;;;;;;;;5014990;28;19971;-73
2022/10/24 08:27:56;;;;;;;;;;;;;;;;;;5027774;28;19970;-72
2022/10/24 08:30:22;;;;;;;;;;;;;;;;;;5053657;28;19920;-73
2022/10/24 08:32:48;;;;;;;;;;;;;;;;;;5053222;28;20314;-73
2022/10/24 08:35:13;;;;;;;;;;;;;;;;;;5031933;28;19924;-73
2022/10/24 08:37:39;;;;;;;;;;;;;;;;;;5052877;28;19970;-73
2022/10/24 08:40:05;;;;;;;;;;;;;;;;;;5034763;28;19971;-73
2022/10/24 08:42:31;;;;;;;;;;;;;;;;;;5034380;28;19917;-74
2022/10/24 08:44:57;;;;;;;;;;;;;;;;;;5034529;28;20097;-73
2022/10/24 08:47:23;;;;;;;;;;;;;;;;;;5034839;28;20375;-73
2022/10/24 08:49:49;;;;;;;;;;;;;;;;;;5033590;28;19979;-73
2022/10/24 08:52:15;;;;;;;;;;;;;;;;;;5052573;28;20271;-73
2022/10/24 08:54:41;;;;;;;;;;;;;;;;;;5051463;28;19923;-73
2022/10/24 08:57:07;;;;;;;;;;;;;;;;;;5018093;28;19917;-73
2022/10/24 08:59:33;;;;;;;;;;;;;;;;;;5034981;28;20007;-73
2022/10/24 09:01:58;;;;;;;;;;;;;;;;;;5052686;28;19931;-73
2022/10/24 09:04:24;;;;;;;;;;;;;;;;;;5021268;28;19917;-72
2022/10/24 09:06:50;;;;;;;;;;;;;;;;;;5033919;28;19925;-73
2022/10/24 09:09:16;;;;;;;;;;;;;;;;;;5032593;28;19979;-73
2022/10/24 09:11:42;;;;;;;;;;;;;;;;;;5015475;28;19920;-73
2022/10/24 09:14:08;;;;;;;;;;;;;;;;;;5048680;28;20393;-73
2022/10/24 09:16:34;;;;;;;;;;;;;;;;;;5037041;28;19916;-73
2022/10/24 09:19:00;;;;;;;;;;;;;;;;;;5033750;28;19920;-73
2022/10/24 09:21:26;;;;;;;;;;;;;;;;;;5033672;28;19944;-73
2022/10/24 09:23:52;;;;;;;;;;;;;;;;;;5028221;28;19916;-72
2022/10/24 09:26:18;;;;;;;;;;;;;;;;;;5040139;28;20347;-76
2022/10/24 09:28:44;;;;;;;;;;;;;;;;;;5026013;28;19917;-76
2022/10/24 09:31:10;;;;;;;;;;;;;;;;;;5034812;28;20290;-73
2022/10/24 09:33:39;;;;;;;;;;;;;;;;;;5050588;28;19916;-75
2022/10/24 09:36:05;;;;;;;;;;;;;;;;;;5051907;28;19921;-75
2022/10/24 09:38:32;;;;;;;;;;;;;;;;;;5018437;28;19924;-76
2022/10/24 09:40:59;;;;;;;;;;;;;;;;;;5014887;28;19917;-75
2022/10/24 09:43:25;;;;;;;;;;;;;;;;;;5047992;23;19920;-71
2022/10/24 09:45:51;;;;;;;;;;;;;;;;;;5043077;28;20306;-71
2022/10/24 09:48:17;;;;;;;;;;;;;;;;;;5050805;28;19924;-69
2022/10/24 09:50:43;;;;;;;;;;;;;;;;;;5051762;28;19916;-69
2022/10/24 09:53:09;;;;;;;;;;;;;;;;;;5047326;28;20382;-69
2022/10/24 09:55:35;;;;;;;;;;;;;;;;;;5048917;28;19916;-69
2022/10/24 09:58:04;;;;;;;;;;;;;;;;;;5051994;28;19960;-70
2022/10/24 10:00:30;;;;;;;;;;;;;;;;;;5055856;28;19964;-70
2022/10/24 10:02:56;;;;;;;;;;;;;;;;;;5059261;28;19924;-70
2022/10/24 10:05:22;;;;;;;;;;;;;;;;;;5052079;28;19971;-70
2022/10/24 10:07:47;;;;;;;;;;;;;;;;;;5031766;28;20432;-71
2022/10/24 10:10:13;;;;;;;;;;;;;;;;;;5032580;28;19940;-71
2022/10/24 10:12:39;;;;;;;;;;;;;;;;;;5051349;28;20298;-71
2022/10/24 10:15:05;;;;;;;;;;;;;;;;;;5047495;28;19917;-70
2022/10/24 10:17:31;;;;;;;;;;;;;;;;;;5033243;28;20405;-71
2022/10/24 10:19:57;;;;;;;;;;;;;;;;;;5028321;28;19921;-70
2022/10/24 10:22:23;;;;;;;;;;;;;;;;;;5029130;28;19921;-70
2022/10/24 10:24:49;;;;;;;;;;;;;;;;;;5043313;28;19928;-70
2022/10/24 10:27:15;;;;;;;;;;;;;;;;;;5036172;28;20462;-70
2022/10/24 10:29:40;;;;;;;;;;;;;;;;;;5047542;28;19931;-70
2022/10/24 10:32:08;;;;;;;;;;;;;;;;;;5045668;28;19916;-70
2022/10/24 10:34:34;;;;;;;;;;;;;;;;;;5044024;28;20317;-70
2022/10/24 10:37:00;;;;;;;;;;;;;;;;;;5043125;28;19963;-71
2022/10/24 10:39:26;;;;;;;;;;;;;;;;;;5024676;28;19948;-71
2022/10/24 10:41:52;;;;;;;;;;;;;;;;;;5031016;28;20405;-70
2022/10/24 10:44:18;;;;;;;;;;;;;;;;;;5043377;28;19977;-70
2022/10/24 10:46:44;;;;;;;;;;;;;;;;;;5041375;28;19928;-70
2022/10/24 10:49:09;;;;;;;;;;;;;;;;;;5048889;28;19939;-71
2022/10/24 10:51:35;;;;;;;;;;;;;;;;;;5035335;28;20491;-71
2022/10/24 10:54:01;;;;;;;;;;;;;;;;;;5038407;28;19927;-70
2022/10/24 10:56:27;;;;;;;;;;;;;;;;;;5037568;28;19932;-71
2022/10/24 10:58:53;;;;;;;;;;;;;;;;;;5018636;28;19921;-70
2022/10/24 11:01:19;;;;;;;;;;;;;;;;;;5052953;28;19924;-70
2022/10/24 11:03:45;;;;;;;;;;;;;;;;;;5037123;28;19921;-70
2022/10/24 11:06:11;;;;;;;;;;;;;;;;;;5034349;28;19925;-70
2022/10/24 11:08:38;;;;;;;;;;;;;;;;;;5047611;28;20021;-70
2022/10/24 11:11:04;;;;;;;;;;;;;;;;;;5053151;28;19939;-71
2022/10/24 11:13:30;;;;;;;;;;;;;;;;;;5033508;28;20256;-70
2022/10/24 11:15:56;;;;;;;;;;;;;;;;;;5040122;28;19917;-70
2022/10/24 11:18:22;;;;;;;;;;;;;;;;;;5044769;28;19936;-70
2022/10/24 11:20:50;;;;;;;;;;;;;;;;;;5053232;28;19928;-70
2022/10/24 11:23:15;;;;;;;;;;;;;;;;;;5052321;28;20385;-69
2022/10/24 11:25:41;;;;;;;;;;;;;;;;;;5042731;28;20007;-70
2022/10/24 11:28:07;;;;;;;;;;;;;;;;;;5036840;28;19923;-71
2022/10/24 11:30:33;;;;;;;;;;;;;;;;;;5024029;28;20367;-70
2022/10/24 11:32:59;;;;;;;;;;;;;;;;;;5034417;28;19927;-70
2022/10/24 11:35:25;;;;;;;;;;;;;;;;;;5034466;28;19925;-70
2022/10/24 11:37:51;;;;;;;;;;;;;;;;;;5024330;28;20000;-70
2022/10/24 11:40:17;;;;;;;;;;;;;;;;;;5055162;28;19923;-70
2022/10/24 11:42:43;;;;;;;;;;;;;;;;;;5053457;28;19972;-70
2022/10/24 11:45:08;;;;;;;;;;;;;;;;;;5043709;28;19921;-70
2022/10/24 11:47:34;;;;;;;;;;;;;;;;;;5041408;28;19917;-70
2022/10/24 11:50:00;;;;;;;;;;;;;;;;;;5048922;28;20306;-70
2022/10/24 11:52:26;;;;;;;;;;;;;;;;;;5052698;28;19955;-70
2022/10/24 11:54:52;;;;;;;;;;;;;;;;;;5051840;28;20022;-71
2022/10/24 11:57:18;;;;;;;;;;;;;;;;;;5053597;28;19978;-71
2022/10/24 11:59:44;;;;;;;;;;;;;;;;;;5052111;28;20007;-71
2022/10/24 12:02:10;;;;;;;;;;;;;;;;;;5045751;28;19917;-71
2022/10/24 12:04:36;;;;;;;;;;;;;;;;;;5048115;28;19920;-71
2022/10/24 12:07:01;;;;;;;;;;;;;;;;;;5052366;28;19931;-71
2022/10/24 12:09:27;;;;;;;;;;;;;;;;;;5052448;28;19999;-72
2022/10/24 12:11:53;;;;;;;;;;;;;;;;;;5052170;28;19921;-71
2022/10/24 12:14:19;;;;;;;;;;;;;;;;;;5051638;28;20286;-71
2022/10/24 12:16:45;;;;;;;;;;;;;;;;;;5052302;28;19923;-71
2022/10/24 12:19:11;;;;;;;;;;;;;;;;;;5032411;28;19921;-71
2022/10/24 12:21:38;;;;;;;;;;;;;;;;;;5038892;28;20379;-71
2022/10/24 12:24:04;;;;;;;;;;;;;;;;;;5040406;28;20814;-71
2022/10/24 12:26:30;;;;;;;;;;;;;;;;;;5051133;28;19920;-71
2022/10/24 12:28:56;;;;;;;;;;;;;;;;;;5034376;28;20058;-71
2022/10/24 12:31:22;;;;;;;;;;;;;;;;;;5032654;28;19921;-71
2022/10/24 12:33:47;;;;;;;;;;;;;;;;;;5033809;28;20575;-70
2022/10/24 12:36:13;;;;;;;;;;;;;;;;;;5039728;28;20266;-71
2022/10/24 12:38:39;;;;;;;;;;;;;;;;;;5053510;28;19916;-71
2022/10/24 12:41:08;;;;;;;;;;;;;;;;;;5052055;28;19923;-71
2022/10/24 12:43:34;;;;;;;;;;;;;;;;;;5051480;28;19927;-71
2022/10/24 12:46:00;;;;;;;;;;;;;;;;;;5051119;28;19924;-71
2022/10/24 12:48:26;;;;;;;;;;;;;;;;;;5051666;28;19956;-71
2022/10/24 12:50:52;;;;;;;;;;;;;;;;;;5051670;28;20285;-71
2022/10/24 12:53:18;;;;;;;;;;;;;;;;;;5048751;28;19987;-71
2022/10/24 12:55:43;;;;;;;;;;;;;;;;;;5040659;28;19932;-72
2022/10/24 12:58:09;;;;;;;;;;;;;;;;;;5049423;28;20283;-71
2022/10/24 13:00:35;;;;;;;;;;;;;;;;;;5042831;28;19928;-71
2022/10/24 13:03:01;;;;;;;;;;;;;;;;;;5051231;28;19921;-71
2022/10/24 13:05:27;;;;;;;;;;;;;;;;;;5048267;28;19924;-71
2022/10/24 13:07:53;;;;;;;;;;;;;;;;;;5048598;28;19921;-71
2022/10/24 13:10:19;;;;;;;;;;;;;;;;;;5026256;28;19917;-71
2022/10/24 13:12:45;;;;;;;;;;;;;;;;;;5031322;28;20302;-71
2022/10/24 13:15:11;;;;;;;;;;;;;;;;;;5042485;28;19917;-71
2022/10/24 13:17:37;;;;;;;;;;;;;;;;;;5051266;28;19920;-72
2022/10/24 13:20:02;;;;;;;;;;;;;;;;;;5034631;28;20279;-71
2022/10/24 13:22:28;;;;;;;;;;;;;;;;;;5052822;28;20293;-71
2022/10/24 13:24:54;;;;;;;;;;;;;;;;;;5041453;28;19928;-71
2022/10/24 13:27:20;;;;;;;;;;;;;;;;;;5039799;28;19923;-71
2022/10/24 13:29:46;;;;;;;;;;;;;;;;;;5050688;28;19927;-71
2022/10/24 13:32:12;;;;;;;;;;;;;;;;;;5034419;28;20289;-70
2022/10/24 13:34:38;;;;;;;;;;;;;;;;;;5050134;28;20016;-70
2022/10/24 13:37:04;;;;;;;;;;;;;;;;;;5050828;28;19970;-70
2022/10/24 13:39:30;;;;;;;;;;;;;;;;;;5033796;28;20298;-70
2022/10/24 13:41:56;;;;;;;;;;;;;;;;;;5050766;28;19916;-70
2022/10/24 13:44:21;;;;;;;;;;;;;;;;;;5049590;28;19996;-70
2022/10/24 13:46:47;;;;;;;;;;;;;;;;;;5052003;28;19975;-71
2022/10/24 13:49:13;;;;;;;;;;;;;;;;;;5051159;28;19990;-70
2022/10/24 13:51:39;;;;;;;;;;;;;;;;;;5051952;28;19923;-70
2022/10/24 13:54:05;;;;;;;;;;;;;;;;;;5042999;28;19952;-70
2022/10/24 13:56:31;;;;;;;;;;;;;;;;;;5030233;28;20003;-71
2022/10/24 13:58:57;;;;;;;;;;;;;;;;;;5051707;28;20375;-71
2022/10/24 14:01:26;;;;;;;;;;;;;;;;;;5033434;28;19933;-71
2022/10/24 14:03:52;;;;;;;;;;;;;;;;;;5050716;28;20333;-71
2022/10/24 14:06:18;;;;;;;;;;;;;;;;;;5051300;28;19921;-71
2022/10/24 14:08:44;;;;;;;;;;;;;;;;;;5046248;28;19917;-71
2022/10/24 14:11:09;;;;;;;;;;;;;;;;;;5030471;28;19940;-71
2022/10/24 14:13:35;;;;;;;;;;;;;;;;;;5034895;28;19971;-71
2022/10/24 14:16:01;;;;;;;;;;;;;;;;;;5049601;28;20447;-70
2022/10/24 14:18:27;;;;;;;;;;;;;;;;;;5050432;28;19917;-70
2022/10/24 14:20:53;;;;;;;;;;;;;;;;;;5033747;28;19923;-70
2022/10/24 14:23:19;;;;;;;;;;;;;;;;;;5042312;28;20272;-71
2022/10/24 14:25:45;;;;;;;;;;;;;;;;;;5029428;28;19925;-70
2022/10/24 14:28:11;;;;;;;;;;;;;;;;;;5044574;28;19917;-70
2022/10/24 14:30:37;;;;;;;;;;;;;;;;;;5050542;28;19923;-70
2022/10/24 14:33:03;;;;;;;;;;;;;;;;;;5050218;28;19916;-70
2022/10/24 14:35:29;;;;;;;;;;;;;;;;;;5049400;28;19916;-70
2022/10/24 14:37:54;;;;;;;;;;;;;;;;;;5050267;28;19916;-71
2022/10/24 14:40:20;;;;;;;;;;;;;;;;;;5042124;28;20277;-71
2022/10/24 14:42:46;;;;;;;;;;;;;;;;;;5015086;28;19920;-71
2022/10/24 14:45:12;;;;;;;;;;;;;;;;;;5035471;28;19925;-71
2022/10/24 14:47:38;;;;;;;;;;;;;;;;;;5035994;28;20406;-71
2022/10/24 14:50:04;;;;;;;;;;;;;;;;;;5032268;28;19917;-71
2022/10/24 14:52:35;;;;;;;;;;;;;;;;;;5031723;28;20337;-70
2022/10/24 14:55:02;;;;;;;;;;;;;;;;;;5029280;28;19928;-71
2022/10/24 14:57:28;;;;;;;;;;;;;;;;;;5046533;28;20015;-71
2022/10/24 14:59:54;;;;;;;;;;;;;;;;;;5033147;28;20425;-71
2022/10/24 15:02:20;;;;;;;;;;;;;;;;;;5051455;28;19963;-71
2022/10/24 15:04:46;;;;;;;;;;;;;;;;;;5050471;28;19952;-71
2022/10/24 15:07:13;;;;;;;;;;;;;;;;;;5049261;28;19929;-70
2022/10/24 15:09:38;;;;;;;;;;;;;;;;;;5046349;28;20007;-71
2022/10/24 15:12:05;;;;;;;;;;;;;;;;;;5050633;28;20007;-71
2022/10/24 15:14:32;;;;;;;;;;;;;;;;;;5027812;28;19924;-71
2022/10/24 15:16:58;;;;;;;;;;;;;;;;;;5043728;28;19917;-70
2022/10/24 15:19:24;;;;;;;;;;;;;;;;;;5043561;28;20392;-70
2022/10/24 15:21:50;;;;;;;;;;;;;;;;;;5025350;28;19923;-71
2022/10/24 15:24:16;;;;;;;;;;;;;;;;;;5049308;28;19970;-71
2022/10/24 15:26:43;;;;;;;;;;;;;;;;;;5052413;28;19929;-71
2022/10/24 15:29:09;;;;;;;;;;;;;;;;;;5052366;28;19923;-71
2022/10/24 15:31:35;;;;;;;;;;;;;;;;;;5049986;28;19917;-71
2022/10/24 15:34:01;;;;;;;;;;;;;;;;;;5051841;28;19932;-71
2022/10/24 15:36:27;;;;;;;;;;;;;;;;;;5052992;28;19977;-70
2022/10/24 15:38:53;;;;;;;;;;;;;;;;;;5048592;28;19917;-71
2022/10/24 15:41:19;;;;;;;;;;;;;;;;;;5051693;28;19994;-70
2022/10/24 15:43:45;;;;;;;;;;;;;;;;;;5078715;22;20061;-76
2022/10/24 15:46:11;;;;;;;;;;;;;;;;;;5045911;28;19921;-77
2022/10/24 15:48:38;;;;;;;;;;;;;;;;;;5061549;28;20363;-77
2022/10/24 15:51:03;;;;;;;;;;;;;;;;;;5060738;28;19998;-77
2022/10/24 15:53:29;;;;;;;;;;;;;;;;;;5056080;28;19955;-77
2022/10/24 15:55:55;;;;;;;;;;;;;;;;;;5035389;28;20004;-77
2022/10/24 15:58:21;;;;;;;;;;;;;;;;;;5032741;28;19927;-74
2022/10/24 16:00:47;;;;;;;;;;;;;;;;;;5032381;28;19917;-77
2022/10/24 16:03:13;;;;;;;;;;;;;;;;;;5046924;28;19916;-77
2022/10/24 16:05:39;;;;;;;;;;;;;;;;;;5052981;28;19967;-77
2022/10/24 16:08:05;;;;;;;;;;;;;;;;;;5036055;28;20283;-77
2022/10/24 16:10:31;;;;;;;;;;;;;;;;;;5052712;28;19923;-77
2022/10/24 16:12:56;;;;;;;;;;;;;;;;;;5052645;28;19916;-77
2022/10/24 16:15:22;;;;;;;;;;;;;;;;;;5042656;28;19924;-77
2022/10/24 16:17:48;;;;;;;;;;;;;;;;;;5038829;28;19917;-77
2022/10/24 16:20:14;;;;;;;;;;;;;;;;;;5036283;28;19996;-77
2022/10/24 16:22:40;;;;;;;;;;;;;;;;;;5040633;28;19917;-77
2022/10/24 16:25:06;;;;;;;;;;;;;;;;;;5029871;28;20369;-79
2022/10/24 16:27:32;;;;;;;;;;;;;;;;;;5039766;28;19925;-76
2022/10/24 16:29:58;;;;;;;;;;;;;;;;;;5043808;28;19916;-77
2022/10/24 16:32:24;;;;;;;;;;;;;;;;;;5035279;28;19924;-77
2022/10/24 16:34:51;;;;;;;;;;;;;;;;;;5052395;28;19923;-77
2022/10/24 16:37:19;;;;;;;;;;;;;;;;;;5051177;28;20394;-77